createdAt,value
2018-12-12T00:02:22.291Z,15.18
2018-12-12T00:04:51.069Z,17.75
2018-12-12T00:07:20.819Z,26.60
2018-12-12T00:09:49.626Z,16.62
2018-12-12T00:12:18.328Z,14.40
2018-12-12T00:14:47.059Z,18.77
2018-12-12T00:17:15.676Z,15.80
2018-12-12T00:19:44.374Z,22.15
2018-12-12T00:22:13.087Z,18.05
2018-12-12T00:24:41.772Z,29.50
2018-12-12T00:27:10.563Z,18.40
2018-12-12T00:29:39.255Z,17.07
2018-12-12T00:32:07.971Z,22.50
2018-12-12T00:34:36.768Z,19.98
2018-12-12T00:37:05.379Z,15.83
2018-12-12T00:39:34.137Z,17.30
2018-12-12T00:42:02.840Z,15.23
2018-12-12T00:44:31.532Z,18.35
2018-12-12T00:47:00.466Z,16.80
2018-12-12T00:49:29.125Z,19.40
2018-12-12T00:51:57.808Z,18.15
2018-12-12T00:54:26.565Z,14.43
2018-12-12T00:56:55.300Z,18.52
2018-12-12T00:59:24.008Z,16.82
2018-12-12T01:01:52.788Z,13.90
2018-12-12T01:04:22.133Z,17.95
2018-12-12T01:06:50.808Z,20.35
2018-12-12T01:09:19.755Z,20.23
2018-12-12T01:11:53.778Z,11.12
2018-12-12T01:14:22.498Z,22.70
2018-12-12T01:16:51.209Z,13.45
2018-12-12T01:19:19.936Z,21.50
2018-12-12T01:21:48.652Z,18.93
2018-12-12T01:24:17.280Z,13.27
2018-12-12T01:26:46.024Z,19.20
2018-12-12T01:29:14.852Z,17.25
2018-12-12T01:31:43.549Z,13.07
2018-12-12T01:34:12.294Z,15.43
2018-12-12T01:36:40.997Z,17.32
2018-12-12T01:39:09.716Z,12.55
2018-12-12T01:41:38.410Z,23.47
2018-12-12T01:44:07.133Z,21.90
2018-12-12T01:46:35.900Z,13.08
2018-12-12T01:49:04.748Z,20.97
2018-12-12T01:51:33.444Z,15.83
2018-12-12T01:54:02.178Z,18.80
2018-12-12T01:56:30.868Z,29.32
2018-12-12T01:58:59.667Z,15.90
2018-12-12T02:01:28.440Z,15.80
2018-12-12T02:03:57.160Z,20.25
2018-12-12T02:06:26.016Z,17.23
2018-12-12T02:08:54.972Z,16.42
2018-12-12T02:11:23.680Z,16.23
2018-12-12T02:13:52.499Z,15.32
2018-12-12T02:16:21.619Z,19.62
2018-12-12T02:18:50.402Z,17.95
2018-12-12T02:21:19.166Z,15.43
2018-12-12T02:23:47.891Z,19.35
2018-12-12T02:26:16.628Z,20.82
2018-12-12T02:28:45.580Z,15.00
2018-12-12T02:31:14.433Z,15.35
2018-12-12T02:33:43.200Z,15.55
2018-12-12T02:36:12.083Z,23.55
2018-12-12T02:38:40.797Z,23.18
2018-12-12T02:41:09.531Z,13.30
2018-12-12T02:43:38.272Z,15.83
2018-12-12T02:46:06.957Z,23.67
2018-12-12T02:48:35.771Z,14.00
2018-12-12T02:51:04.818Z,19.98
2018-12-12T02:53:33.580Z,16.80
2018-12-12T02:56:02.379Z,13.68
2018-12-12T02:58:31.216Z,20.32
2018-12-12T03:00:59.998Z,19.82
2018-12-12T03:03:28.788Z,19.00
2018-12-12T03:05:57.590Z,25.48
2018-12-12T03:08:26.388Z,25.77
2018-12-12T03:10:55.158Z,24.80
2018-12-12T03:13:24.044Z,21.42
2018-12-12T03:15:52.757Z,25.40
2018-12-12T03:18:21.476Z,27.30
2018-12-12T03:20:50.203Z,24.52
2018-12-12T03:23:19.016Z,21.17
2018-12-12T03:25:47.785Z,23.98
2018-12-12T03:28:16.511Z,17.48
2018-12-12T03:30:45.217Z,20.02
2018-12-12T03:33:13.927Z,24.55
2018-12-12T03:35:42.630Z,21.27
2018-12-12T03:38:11.342Z,22.73
2018-12-12T03:40:40.537Z,24.75
2018-12-12T03:43:09.604Z,32.75
2018-12-12T03:45:38.283Z,21.48
2018-12-12T03:48:07.096Z,14.63
2018-12-12T03:50:35.964Z,27.95
2018-12-12T03:53:04.830Z,21.33
2018-12-12T03:55:33.507Z,21.57
2018-12-12T03:58:02.223Z,21.70
2018-12-12T04:00:31.021Z,21.48
2018-12-12T04:02:59.827Z,17.00
2018-12-12T04:05:28.523Z,17.67
2018-12-12T04:07:57.405Z,23.22
2018-12-12T04:10:26.172Z,26.23
2018-12-12T04:12:54.912Z,27.00
2018-12-12T04:15:23.661Z,17.10
2018-12-12T04:17:52.453Z,26.68
2018-12-12T04:20:21.192Z,28.80
2018-12-12T04:22:49.847Z,26.07
2018-12-12T04:25:18.543Z,16.57
2018-12-12T04:27:47.258Z,25.50
2018-12-12T04:30:15.856Z,16.37
2018-12-12T04:32:44.701Z,20.02
2018-12-12T04:35:13.470Z,21.23
2018-12-12T04:37:42.226Z,17.05
2018-12-12T04:40:11.033Z,22.52
2018-12-12T04:42:39.856Z,19.10
2018-12-12T04:45:08.568Z,22.02
2018-12-12T04:47:37.265Z,19.92
2018-12-12T04:50:06.252Z,16.82
2018-12-12T04:52:35.005Z,21.48
2018-12-12T04:55:03.831Z,13.85
2018-12-12T04:57:32.689Z,23.73
2018-12-12T05:00:01.400Z,27.17
2018-12-12T05:02:30.278Z,17.95
2018-12-12T05:04:59.220Z,12.90
2018-12-12T05:07:27.975Z,23.05
2018-12-12T05:09:56.719Z,20.43
2018-12-12T05:12:25.452Z,25.48
2018-12-12T05:14:54.143Z,16.42
2018-12-12T05:17:22.876Z,18.50
2018-12-12T05:19:51.643Z,21.00
2018-12-12T05:22:20.350Z,16.35
2018-12-12T05:24:49.024Z,31.13
2018-12-12T05:27:17.897Z,28.57
2018-12-12T05:29:46.758Z,15.75
2018-12-12T05:32:15.498Z,21.62
2018-12-12T05:34:44.199Z,19.10
2018-12-12T05:37:12.952Z,23.42
2018-12-12T05:39:41.590Z,19.30
2018-12-12T05:42:10.483Z,17.07
2018-12-12T05:44:39.231Z,14.60
2018-12-12T05:47:08.032Z,14.53
2018-12-12T05:49:36.826Z,15.20
2018-12-12T05:52:05.635Z,14.63
2018-12-12T05:54:34.404Z,17.12
2018-12-12T05:57:03.121Z,17.52
2018-12-12T05:59:31.869Z,20.55
2018-12-12T06:02:00.718Z,13.58
2018-12-12T06:04:29.479Z,20.60
2018-12-12T06:06:58.237Z,21.48
2018-12-12T06:09:26.943Z,16.05
2018-12-12T06:11:55.795Z,16.82
2018-12-12T06:14:24.712Z,16.30
2018-12-12T06:16:53.342Z,24.93
2018-12-12T06:19:21.961Z,24.43
2018-12-12T06:21:50.674Z,14.83
2018-12-12T06:24:19.462Z,18.60
2018-12-12T06:26:48.252Z,17.10
2018-12-12T06:29:16.955Z,18.15
2018-12-12T06:31:45.576Z,21.30
2018-12-12T06:34:14.412Z,18.82
2018-12-12T06:36:43.183Z,22.05
2018-12-12T06:39:11.894Z,16.55
2018-12-12T06:41:40.699Z,13.32
2018-12-12T06:44:09.399Z,17.87
2018-12-12T06:46:38.068Z,11.40
2018-12-12T06:49:06.775Z,16.27
2018-12-12T06:51:35.514Z,25.90
2018-12-12T06:54:04.311Z,18.37
2018-12-12T06:56:33.235Z,17.02
2018-12-12T06:59:01.922Z,15.72
2018-12-12T07:01:30.679Z,20.20
2018-12-12T07:03:59.465Z,26.90
2018-12-12T07:06:28.171Z,23.73
2018-12-12T07:08:57.082Z,11.93
2018-12-12T07:11:25.866Z,22.22
2018-12-12T07:13:54.564Z,19.25
2018-12-12T07:16:23.344Z,13.22
2018-12-12T07:18:52.094Z,21.00
2018-12-12T07:21:20.930Z,8.28
2018-12-12T07:23:49.627Z,11.63
2018-12-12T07:26:18.485Z,25.35
2018-12-12T07:28:47.302Z,15.13
2018-12-12T07:31:16.051Z,15.48
2018-12-12T07:33:44.808Z,13.25
2018-12-12T07:36:13.639Z,14.53
2018-12-12T07:38:42.336Z,21.68
2018-12-12T07:41:11.212Z,14.18
2018-12-12T07:43:39.905Z,18.85
2018-12-12T07:46:08.659Z,24.35
2018-12-12T07:48:37.372Z,40.35
2018-12-12T07:51:06.183Z,13.48
2018-12-12T07:53:34.918Z,16.55
2018-12-12T07:56:03.773Z,12.55
2018-12-12T07:58:32.543Z,8.63
2018-12-12T08:01:02.615Z,15.93
2018-12-12T08:03:31.618Z,21.70
2018-12-12T08:06:00.443Z,16.25
2018-12-12T08:08:29.341Z,13.35
2018-12-12T08:10:58.457Z,14.00
2018-12-12T08:13:27.131Z,17.48
2018-12-12T08:15:56.169Z,13.65
2018-12-12T08:18:24.835Z,10.98
2018-12-12T08:20:53.550Z,11.25
2018-12-12T08:23:22.699Z,10.25
2018-12-12T08:25:51.564Z,19.42
2018-12-12T08:28:20.228Z,6.90
2018-12-12T08:30:48.857Z,8.70
2018-12-12T08:33:17.537Z,14.50
2018-12-12T08:35:46.399Z,6.87
2018-12-12T08:38:15.176Z,10.38
2018-12-12T08:40:43.888Z,8.00
2018-12-12T08:43:12.619Z,7.33
2018-12-12T08:45:41.236Z,7.10
2018-12-12T08:48:09.905Z,8.18
2018-12-12T08:50:38.687Z,7.90
2018-12-12T08:53:07.325Z,11.23
2018-12-12T08:55:36.711Z,8.53
2018-12-12T08:58:05.425Z,11.70
2018-12-12T09:00:34.313Z,7.15
2018-12-12T09:03:03.088Z,11.75
2018-12-12T09:05:31.820Z,7.87
2018-12-12T09:08:00.823Z,6.33
2018-12-12T09:10:29.895Z,10.65
2018-12-12T09:12:58.573Z,6.12
2018-12-12T09:15:27.368Z,10.65
2018-12-12T09:17:55.962Z,5.73
2018-12-12T09:20:24.711Z,6.50
2018-12-12T09:22:53.478Z,7.70
2018-12-12T09:25:22.123Z,7.30
2018-12-12T09:27:50.751Z,4.50
2018-12-12T09:30:19.459Z,9.90
2018-12-12T09:32:48.271Z,11.53
2018-12-12T09:35:16.905Z,6.37
2018-12-12T09:37:45.679Z,6.45
2018-12-12T09:40:14.413Z,5.65
2018-12-12T09:42:43.010Z,5.53
2018-12-12T09:45:11.695Z,9.00
2018-12-12T09:47:40.565Z,6.70
2018-12-12T09:50:09.582Z,17.32
2018-12-12T09:52:38.320Z,9.70
2018-12-12T09:55:07.194Z,9.08
2018-12-12T09:57:35.795Z,5.23
2018-12-12T10:00:04.884Z,3.73
2018-12-12T10:02:33.720Z,5.78
2018-12-12T10:05:02.332Z,6.70
2018-12-12T10:07:30.978Z,12.23
2018-12-12T10:09:59.715Z,6.90
2018-12-12T10:12:28.350Z,8.27
2018-12-12T10:14:57.137Z,12.27
2018-12-12T10:17:25.731Z,7.33
2018-12-12T10:19:54.380Z,9.80
2018-12-12T10:22:23.007Z,9.40
2018-12-12T10:24:51.844Z,6.53
2018-12-12T10:27:20.436Z,12.77
2018-12-12T10:29:49.085Z,6.87
2018-12-12T10:32:17.805Z,5.23
2018-12-12T10:34:46.432Z,8.47
2018-12-12T10:37:15.036Z,7.70
2018-12-12T10:39:43.666Z,3.80
2018-12-12T10:42:12.390Z,5.90
2018-12-12T10:44:41.092Z,9.97
2018-12-12T10:47:09.887Z,7.90
2018-12-12T10:49:38.571Z,11.63
2018-12-12T10:52:07.196Z,4.93
2018-12-12T10:54:35.849Z,6.93
2018-12-12T10:57:04.523Z,5.47
2018-12-12T10:59:33.152Z,7.27
2018-12-12T11:02:07.093Z,5.67
2018-12-12T11:04:36.012Z,5.00
2018-12-12T11:07:04.854Z,5.10
2018-12-12T11:09:33.648Z,6.77
2018-12-12T11:12:02.339Z,7.50
2018-12-12T11:14:30.973Z,5.27
2018-12-12T11:16:59.589Z,5.73
2018-12-12T11:19:28.293Z,9.23
2018-12-12T11:21:56.902Z,5.33
2018-12-12T11:24:25.543Z,4.67
2018-12-12T11:26:54.159Z,7.83
2018-12-12T11:29:22.927Z,11.17
2018-12-12T11:31:51.656Z,8.37
2018-12-12T11:34:20.395Z,3.20
2018-12-12T11:36:49.120Z,4.90
2018-12-12T11:39:19.406Z,4.03
2018-12-12T11:41:48.052Z,5.90
2018-12-12T11:44:16.789Z,7.70
2018-12-12T11:46:45.396Z,5.97
2018-12-12T11:49:14.324Z,6.80
2018-12-12T11:51:42.950Z,5.17
2018-12-12T11:54:11.678Z,5.87
2018-12-12T11:56:40.333Z,2.97
2018-12-12T11:59:09.080Z,6.80
2018-12-12T12:01:37.771Z,6.37
2018-12-12T12:04:06.479Z,4.27
2018-12-12T12:06:35.103Z,8.83
2018-12-12T12:09:05.873Z,3.53
2018-12-12T12:11:34.492Z,3.20
2018-12-12T12:14:03.355Z,2.43
2018-12-12T12:16:31.991Z,2.30
2018-12-12T12:19:00.755Z,3.00
2018-12-12T12:21:29.363Z,7.43
2018-12-12T12:23:58.104Z,6.57
2018-12-12T12:26:27.229Z,4.27
2018-12-12T12:28:56.085Z,3.10
2018-12-12T12:31:25.040Z,6.20
2018-12-12T12:33:53.739Z,8.33
2018-12-12T12:36:22.335Z,3.80
2018-12-12T12:38:51.127Z,3.40
2018-12-12T12:41:19.804Z,3.17
2018-12-12T12:43:48.524Z,3.33
2018-12-12T12:46:17.141Z,3.70
2018-12-12T12:48:45.769Z,3.43
2018-12-12T12:51:14.462Z,1.30
2018-12-12T12:53:43.754Z,1.83
2018-12-12T12:56:12.415Z,5.80
2018-12-12T12:58:41.054Z,3.73
2018-12-12T13:01:09.704Z,2.10
2018-12-12T13:03:38.680Z,2.60
2018-12-12T13:06:07.407Z,2.20
2018-12-12T13:08:36.083Z,2.90
2018-12-12T13:11:04.756Z,11.20
2018-12-12T13:13:33.433Z,2.07
2018-12-12T13:16:02.780Z,1.93
2018-12-12T13:18:31.743Z,5.37
2018-12-12T13:21:00.339Z,3.40
2018-12-12T13:23:29.239Z,1.60
2018-12-12T13:25:57.899Z,1.43
2018-12-12T13:28:26.553Z,3.23
2018-12-12T13:30:55.182Z,3.40
2018-12-12T13:33:24.184Z,8.13
2018-12-12T13:35:53.220Z,1.60
2018-12-12T13:38:21.970Z,1.83
2018-12-12T13:40:50.618Z,3.33
2018-12-12T13:43:19.367Z,8.83
2018-12-12T13:45:47.978Z,1.97
2018-12-12T13:48:16.706Z,3.60
2018-12-12T13:50:45.294Z,1.80
2018-12-12T13:53:13.954Z,16.37
2018-12-12T13:55:42.652Z,4.10
2018-12-12T13:58:11.382Z,1.60
2018-12-12T14:00:40.875Z,1.00
2018-12-12T14:03:09.503Z,1.63
2018-12-12T14:05:38.115Z,1.10
2018-12-12T14:08:06.803Z,1.73
2018-12-12T14:10:35.691Z,1.47
2018-12-12T14:13:04.320Z,2.03
2018-12-12T14:15:33.340Z,1.80
2018-12-12T14:18:01.956Z,3.90
2018-12-12T14:20:30.782Z,4.70
2018-12-12T14:22:59.400Z,8.53
2018-12-12T14:25:28.186Z,3.77
2018-12-12T14:27:56.819Z,1.50
2018-12-12T14:30:25.866Z,3.37
2018-12-12T14:32:54.707Z,1.57
2018-12-12T14:35:23.736Z,2.47
2018-12-12T14:37:52.702Z,2.10
2018-12-12T14:40:21.368Z,2.17
2018-12-12T14:42:50.528Z,11.30
2018-12-12T14:45:19.499Z,4.40
2018-12-12T14:47:48.166Z,3.60
2018-12-12T14:50:18.331Z,2.33
2018-12-12T14:52:47.224Z,5.20
2018-12-12T14:55:15.984Z,3.70
2018-12-12T14:57:44.665Z,2.23
2018-12-12T15:00:13.604Z,2.63
2018-12-12T15:02:42.280Z,3.50
2018-12-12T15:05:11.062Z,6.83
2018-12-12T15:07:39.711Z,4.53
2018-12-12T15:10:08.801Z,1.67
2018-12-12T15:12:38.451Z,2.83
2018-12-12T15:15:07.311Z,1.10
2018-12-12T15:17:36.709Z,1.47
2018-12-12T15:20:05.685Z,2.20
2018-12-12T15:22:36.561Z,2.50
2018-12-12T15:25:05.848Z,2.83
2018-12-12T15:27:34.479Z,12.27
2018-12-12T15:30:03.232Z,4.00
2018-12-12T15:32:31.910Z,1.43
2018-12-12T15:35:00.504Z,1.53
2018-12-12T15:37:29.220Z,2.13
2018-12-12T15:39:57.946Z,1.30
2018-12-12T15:42:26.658Z,2.10
2018-12-12T15:44:55.645Z,1.87
2018-12-12T15:47:24.557Z,2.33
2018-12-12T15:49:53.357Z,7.00
2018-12-12T15:52:22.114Z,1.33
2018-12-12T15:54:52.028Z,5.40
2018-12-12T15:57:20.675Z,4.53
2018-12-12T15:59:50.267Z,1.67
2018-12-12T16:02:18.926Z,2.87
2018-12-12T16:04:49.145Z,5.73
2018-12-12T16:07:18.192Z,10.20
2018-12-12T16:09:46.851Z,5.20
2018-12-12T16:12:15.505Z,3.80
2018-12-12T16:14:44.160Z,3.23
2018-12-12T16:17:12.861Z,2.63
2018-12-12T16:19:41.491Z,3.53
2018-12-12T16:22:10.122Z,2.67
2018-12-12T16:24:38.734Z,10.60
2018-12-12T16:27:07.415Z,5.67
2018-12-12T16:29:36.178Z,4.50
2018-12-12T16:32:04.929Z,6.27
2018-12-12T16:34:33.664Z,3.90
2018-12-12T16:37:02.324Z,8.63
2018-12-12T16:39:31.056Z,3.50
2018-12-12T16:41:59.741Z,2.80
2018-12-12T16:44:28.369Z,1.60
2018-12-12T16:46:56.968Z,5.13
2018-12-12T16:49:25.579Z,2.23
2018-12-12T16:51:54.323Z,6.47
2018-12-12T16:54:22.931Z,4.70
2018-12-12T16:56:51.563Z,2.20
2018-12-12T16:59:20.331Z,2.20
2018-12-12T17:01:49.027Z,1.37
2018-12-12T17:04:17.703Z,2.63
2018-12-12T17:06:46.456Z,2.50
2018-12-12T17:09:15.817Z,1.63
2018-12-12T17:11:44.463Z,5.80
2018-12-12T17:14:13.145Z,2.57
2018-12-12T17:16:41.903Z,3.93
2018-12-12T17:19:10.531Z,3.90
2018-12-12T17:21:39.192Z,4.83
2018-12-12T17:24:07.908Z,7.13
2018-12-12T17:26:36.562Z,7.40
2018-12-12T17:29:05.351Z,2.30
2018-12-12T17:31:34.153Z,4.05
2018-12-12T17:34:02.964Z,2.90
2018-12-12T17:36:31.807Z,5.93
2018-12-12T17:39:00.560Z,2.13
2018-12-12T17:41:30.735Z,3.75
2018-12-12T17:44:00.240Z,4.92
2018-12-12T17:46:28.947Z,6.25
2018-12-12T17:48:58.491Z,2.25
2018-12-12T17:51:27.858Z,3.10
2018-12-12T17:53:56.920Z,3.47
2018-12-12T17:56:25.753Z,6.58
2018-12-12T17:58:54.540Z,4.03
2018-12-12T18:01:23.492Z,2.90
2018-12-12T18:03:52.442Z,3.95
2018-12-12T18:06:21.186Z,3.10
2018-12-12T18:08:50.172Z,5.80
2018-12-12T18:11:19.243Z,6.67
2018-12-12T18:13:47.987Z,3.47
2018-12-12T18:16:16.758Z,4.95
2018-12-12T18:18:45.483Z,5.05
2018-12-12T18:21:14.398Z,6.25
2018-12-12T18:23:43.256Z,3.83
2018-12-12T18:26:12.236Z,8.40
2018-12-12T18:28:40.964Z,5.80
2018-12-12T18:31:09.797Z,5.30
2018-12-12T18:33:38.723Z,3.92
2018-12-12T18:36:07.464Z,6.35
2018-12-12T18:38:36.352Z,4.42
2018-12-12T18:41:05.116Z,7.47
2018-12-12T18:43:33.827Z,8.80
2018-12-12T18:46:02.923Z,9.05
2018-12-12T18:48:31.629Z,6.25
2018-12-12T18:51:00.380Z,6.28
2018-12-12T18:53:29.619Z,6.58
2018-12-12T18:55:58.425Z,3.85
2018-12-12T18:58:27.220Z,9.50
2018-12-12T19:00:58.801Z,6.90
2018-12-12T19:03:27.880Z,8.00
2018-12-12T19:06:02.246Z,8.35
2018-12-12T19:08:30.980Z,9.18
2018-12-12T19:10:59.966Z,10.65
2018-12-12T19:13:28.709Z,7.87
2018-12-12T19:15:57.472Z,9.95
2018-12-12T19:18:26.320Z,13.68
2018-12-12T19:21:00.032Z,11.95
2018-12-12T19:23:26.536Z,7.58
2018-12-12T19:25:55.585Z,9.43
2018-12-12T19:28:24.451Z,14.35
2018-12-12T19:30:53.153Z,9.98
2018-12-12T19:33:21.764Z,10.03
2018-12-12T19:35:50.571Z,8.33
2018-12-12T19:38:19.272Z,8.20
2018-12-12T19:40:47.988Z,11.33
2018-12-12T19:43:17.152Z,7.47
2018-12-12T19:45:45.965Z,10.30
2018-12-12T19:48:14.684Z,9.33
2018-12-12T19:50:43.590Z,6.22
2018-12-12T19:53:12.463Z,10.55
2018-12-12T19:55:41.268Z,6.93
2018-12-12T19:58:10.034Z,6.40
2018-12-12T20:00:38.647Z,7.07
2018-12-12T20:03:07.442Z,11.80
2018-12-12T20:05:41.351Z,13.72
2018-12-12T20:08:07.028Z,10.00
2018-12-12T20:10:35.949Z,10.72
2018-12-12T20:13:04.945Z,22.35
2018-12-12T20:15:38.844Z,8.00
2018-12-12T20:18:07.784Z,7.70
2018-12-12T20:20:36.520Z,10.10
2018-12-12T20:23:05.299Z,6.42
2018-12-12T20:25:34.008Z,6.17
2018-12-12T20:28:02.785Z,7.15
2018-12-12T20:30:35.267Z,9.15
2018-12-12T20:33:02.303Z,10.32
2018-12-12T20:35:31.064Z,13.62
2018-12-12T20:37:59.933Z,10.45
2018-12-12T20:40:28.747Z,12.23
2018-12-12T20:42:57.628Z,19.50
2018-12-12T20:45:26.319Z,11.10
2018-12-12T20:47:55.025Z,13.43
2018-12-12T20:50:23.674Z,7.67
2018-12-12T20:52:52.436Z,10.98
2018-12-12T20:55:21.156Z,10.77
2018-12-12T21:00:39.460Z,12.20
2018-12-12T21:03:08.270Z,31.07
2018-12-12T21:05:36.938Z,11.77
2018-12-12T21:08:05.551Z,9.50
2018-12-12T21:10:34.437Z,7.10
2018-12-12T21:13:03.104Z,8.17
2018-12-12T21:15:31.843Z,12.00
2018-12-12T21:18:00.512Z,18.77
2018-12-12T21:20:29.680Z,11.87
2018-12-12T21:22:58.334Z,10.53
2018-12-12T21:25:29.258Z,11.25
2018-12-12T21:27:58.147Z,12.55
2018-12-12T21:30:27.003Z,8.90
2018-12-12T21:32:55.872Z,8.80
2018-12-12T21:35:25.131Z,10.13
2018-12-12T21:37:53.896Z,8.38
2018-12-12T21:40:22.663Z,12.95
2018-12-12T21:42:51.379Z,8.40
2018-12-12T21:45:20.195Z,6.50
2018-12-12T21:47:48.866Z,5.97
2018-12-12T21:50:17.553Z,6.80
2018-12-12T21:52:46.289Z,6.60
2018-12-12T21:55:15.023Z,8.43
2018-12-12T21:57:43.776Z,12.45
2018-12-12T22:00:12.651Z,10.35
2018-12-12T22:02:41.395Z,8.28
2018-12-12T22:05:10.172Z,10.28
2018-12-12T22:07:38.879Z,20.85
2018-12-12T22:10:07.684Z,14.95
2018-12-12T22:12:36.436Z,6.37
2018-12-12T22:15:06.831Z,7.80
2018-12-12T22:17:35.635Z,8.73
2018-12-12T22:20:04.652Z,12.20
2018-12-12T22:22:33.340Z,8.18
2018-12-12T22:25:02.105Z,12.90
2018-12-12T22:27:30.911Z,7.45
2018-12-12T22:29:59.615Z,6.67
2018-12-12T22:32:28.387Z,7.75
2018-12-12T22:34:57.067Z,7.45
2018-12-12T22:37:25.822Z,10.10
2018-12-12T22:39:54.554Z,9.30
2018-12-12T22:42:23.440Z,9.83
2018-12-12T22:44:52.114Z,7.80
2018-12-12T22:47:20.799Z,6.72
2018-12-12T22:49:49.480Z,9.30
2018-12-12T22:52:18.243Z,8.85
2018-12-12T22:54:46.963Z,10.10
2018-12-12T22:57:15.779Z,10.30
2018-12-12T22:59:45.060Z,7.42
2018-12-12T23:02:13.816Z,13.00
2018-12-12T23:04:42.546Z,15.93
2018-12-12T23:07:11.304Z,11.63
2018-12-12T23:09:40.115Z,13.85
2018-12-12T23:12:08.887Z,12.23
2018-12-12T23:14:37.593Z,16.90
2018-12-12T23:17:06.316Z,9.38
2018-12-12T23:19:35.185Z,12.60
2018-12-12T23:22:03.924Z,12.80
2018-12-12T23:24:32.713Z,13.15
2018-12-12T23:27:01.423Z,10.80
2018-12-12T23:29:30.131Z,19.37
2018-12-12T23:31:58.842Z,13.28
2018-12-12T23:34:27.525Z,11.70
2018-12-12T23:36:56.230Z,8.58
2018-12-12T23:39:25.740Z,7.83
2018-12-12T23:41:54.678Z,12.05
2018-12-12T23:44:23.404Z,13.53
2018-12-12T23:46:52.137Z,8.25
2018-12-12T23:49:20.879Z,10.28
2018-12-12T23:51:49.571Z,10.13
2018-12-12T23:54:18.444Z,7.03
2018-12-12T23:56:47.158Z,8.50
2018-12-12T23:59:15.865Z,8.13
